createdAt,value
2022-07-29T00:00:28.859Z,16.83
2022-07-29T00:01:28.846Z,16.84
2022-07-29T00:02:28.909Z,16.86
2022-07-29T00:03:28.821Z,16.86
2022-07-29T00:04:28.946Z,16.84
2022-07-29T00:05:28.788Z,16.86
2022-07-29T00:06:28.790Z,16.83
2022-07-29T00:07:28.769Z,16.79
2022-07-29T00:08:28.761Z,16.76
2022-07-29T00:09:28.742Z,16.74
2022-07-29T00:10:28.730Z,16.72
2022-07-29T00:11:28.718Z,16.69
2022-07-29T00:12:28.703Z,16.71
2022-07-29T00:13:31.834Z,16.69
2022-07-29T00:14:28.678Z,16.69
2022-07-29T00:15:28.668Z,16.69
2022-07-29T00:16:28.799Z,16.66
2022-07-29T00:17:28.643Z,16.65
2022-07-29T00:18:28.626Z,16.65
2022-07-29T00:19:28.613Z,16.66
2022-07-29T00:20:28.605Z,16.65
2022-07-29T00:21:28.588Z,16.60
2022-07-29T00:22:28.578Z,16.58
2022-07-29T00:23:29.848Z,16.56
2022-07-29T00:24:28.550Z,16.57
2022-07-29T00:25:28.537Z,16.60
2022-07-29T00:26:28.526Z,16.64
2022-07-29T00:27:28.513Z,16.65
2022-07-29T00:28:28.498Z,16.68
2022-07-29T00:29:34.114Z,16.66
2022-07-29T00:30:29.504Z,16.65
2022-07-29T00:31:28.571Z,16.65
2022-07-29T00:32:28.451Z,16.61
2022-07-29T00:33:28.430Z,16.64
2022-07-29T00:34:28.422Z,16.61
2022-07-29T00:35:28.407Z,16.61
2022-07-29T00:36:28.397Z,16.60
2022-07-29T00:37:28.381Z,16.58
2022-07-29T00:38:28.365Z,16.53
2022-07-29T00:39:28.357Z,16.53
2022-07-29T00:40:28.342Z,16.53
2022-07-29T00:41:28.327Z,16.53
2022-07-29T00:42:28.322Z,16.50
2022-07-29T00:43:28.301Z,16.50
2022-07-29T00:44:28.289Z,16.50
2022-07-29T00:45:28.283Z,16.50
2022-07-29T00:46:28.396Z,16.42
2022-07-29T00:47:28.258Z,16.41
2022-07-29T00:48:28.237Z,16.39
2022-07-29T00:49:28.375Z,16.39
2022-07-29T00:50:28.209Z,16.35
2022-07-29T00:51:28.197Z,16.33
2022-07-29T00:52:28.184Z,16.32
2022-07-29T00:53:28.176Z,16.33
2022-07-29T00:54:28.161Z,16.33
2022-07-29T00:55:28.146Z,16.33
2022-07-29T00:56:28.133Z,16.36
2022-07-29T00:57:28.127Z,16.38
2022-07-29T00:58:28.101Z,16.35
2022-07-29T00:59:34.712Z,16.33
2022-07-29T01:00:29.240Z,16.33
2022-07-29T01:01:28.170Z,16.36
2022-07-29T01:02:28.155Z,16.36
2022-07-29T01:03:28.040Z,16.36
2022-07-29T01:04:28.027Z,16.32
2022-07-29T01:05:50.188Z,16.29
2022-07-29T01:06:29.027Z,16.28
2022-07-29T01:07:27.988Z,16.26
2022-07-29T01:08:27.982Z,16.24
2022-07-29T01:09:35.016Z,16.28
2022-07-29T01:10:28.977Z,16.28
2022-07-29T01:11:27.934Z,16.28
2022-07-29T01:12:27.922Z,16.24
2022-07-29T01:13:27.911Z,16.21
2022-07-29T01:14:27.898Z,16.20
2022-07-29T01:15:27.883Z,16.17
2022-07-29T01:16:27.924Z,16.13
2022-07-29T01:17:27.857Z,16.12
2022-07-29T01:18:27.842Z,16.10
2022-07-29T01:19:27.833Z,16.12
2022-07-29T01:20:31.759Z,16.10
2022-07-29T01:21:27.807Z,16.12
2022-07-29T01:22:27.791Z,16.15
2022-07-29T01:23:27.779Z,16.15
2022-07-29T01:24:27.767Z,16.16
2022-07-29T01:25:27.752Z,16.17
2022-07-29T01:26:27.740Z,16.20
2022-07-29T01:27:27.728Z,16.21
2022-07-29T01:28:27.716Z,16.23
2022-07-29T01:29:36.155Z,16.21
2022-07-29T01:30:28.721Z,16.23
2022-07-29T01:31:27.748Z,16.23
2022-07-29T01:32:29.206Z,16.20
2022-07-29T01:33:27.655Z,16.17
2022-07-29T01:34:27.641Z,16.15
2022-07-29T01:35:27.627Z,16.17
2022-07-29T01:36:27.615Z,16.20
2022-07-29T01:37:27.601Z,16.20
2022-07-29T01:38:27.586Z,16.16
2022-07-29T01:39:27.578Z,16.12
2022-07-29T01:40:27.566Z,16.09
2022-07-29T01:41:27.548Z,16.08
2022-07-29T01:42:27.537Z,16.02
2022-07-29T01:43:27.521Z,16.04
2022-07-29T01:44:27.507Z,16.02
2022-07-29T01:45:27.497Z,16.00
2022-07-29T01:46:27.540Z,15.95
2022-07-29T01:47:27.473Z,15.94
2022-07-29T01:48:27.458Z,15.94
2022-07-29T01:49:27.512Z,15.95
2022-07-29T01:50:27.435Z,15.97
2022-07-29T01:51:27.423Z,15.95
2022-07-29T01:52:27.409Z,15.94
2022-07-29T01:53:27.399Z,15.92
2022-07-29T01:54:27.387Z,15.92
2022-07-29T01:55:27.372Z,15.92
2022-07-29T01:56:27.355Z,15.92
2022-07-29T01:57:27.346Z,15.92
2022-07-29T01:58:27.337Z,15.94
2022-07-29T01:59:27.322Z,15.94
2022-07-29T02:00:27.309Z,15.97
2022-07-29T02:01:27.359Z,15.97
2022-07-29T02:02:27.286Z,15.95
2022-07-29T02:03:27.275Z,15.97
2022-07-29T02:04:29.891Z,15.98
2022-07-29T02:05:27.329Z,15.98
2022-07-29T02:06:27.234Z,15.98
2022-07-29T02:07:27.222Z,15.98
2022-07-29T02:08:27.204Z,15.94
2022-07-29T02:09:27.193Z,15.91
2022-07-29T02:10:27.191Z,15.84
2022-07-29T02:11:27.171Z,15.80
2022-07-29T02:12:27.156Z,15.79
2022-07-29T02:13:27.143Z,15.75
2022-07-29T02:14:27.129Z,15.73
2022-07-29T02:15:27.118Z,15.68
2022-07-29T02:16:27.253Z,15.68
2022-07-29T02:17:27.094Z,15.72
2022-07-29T02:18:27.085Z,15.72
2022-07-29T02:19:27.068Z,15.70
2022-07-29T02:20:27.054Z,15.67
2022-07-29T02:21:27.040Z,15.65
2022-07-29T02:22:27.029Z,15.67
2022-07-29T02:23:27.015Z,15.67
2022-07-29T02:24:27.010Z,15.65
2022-07-29T02:25:37.166Z,15.68
2022-07-29T02:26:28.013Z,15.67
2022-07-29T02:27:26.971Z,15.65
2022-07-29T02:28:26.961Z,15.64
2022-07-29T02:29:26.945Z,15.64
2022-07-29T02:30:26.939Z,15.68
2022-07-29T02:31:27.085Z,15.68
2022-07-29T02:32:26.914Z,15.68
2022-07-29T02:33:26.917Z,15.70
2022-07-29T02:34:26.884Z,15.70
2022-07-29T02:35:26.874Z,15.68
2022-07-29T02:36:26.861Z,15.65
2022-07-29T02:37:26.849Z,15.62
2022-07-29T02:38:26.844Z,15.65
2022-07-29T02:39:26.825Z,15.61
2022-07-29T02:40:26.810Z,15.57
2022-07-29T02:41:26.801Z,15.52
2022-07-29T02:42:26.788Z,15.51
2022-07-29T02:43:26.774Z,15.49
2022-07-29T02:44:31.279Z,15.49
2022-07-29T02:45:27.780Z,15.49
2022-07-29T02:46:29.079Z,15.46
2022-07-29T02:47:26.727Z,15.40
2022-07-29T02:48:26.712Z,15.42
2022-07-29T02:49:26.735Z,15.40
2022-07-29T02:50:26.690Z,15.39
2022-07-29T02:51:41.072Z,15.39
2022-07-29T02:52:27.698Z,15.40
2022-07-29T02:53:26.652Z,15.42
2022-07-29T02:54:26.643Z,15.42
2022-07-29T02:55:26.633Z,15.43
2022-07-29T02:56:26.621Z,15.42
2022-07-29T02:57:26.605Z,15.40
2022-07-29T02:58:26.592Z,15.37
2022-07-29T02:59:26.583Z,15.37
2022-07-29T03:00:26.569Z,15.39
2022-07-29T03:01:26.654Z,15.37
2022-07-29T03:02:26.545Z,15.35
2022-07-29T03:03:26.532Z,15.29
2022-07-29T03:04:26.582Z,15.29
2022-07-29T03:05:26.505Z,15.25
2022-07-29T03:06:38.520Z,15.22
2022-07-29T03:07:27.521Z,15.21
2022-07-29T03:08:26.467Z,15.19
2022-07-29T03:09:26.457Z,15.19
2022-07-29T03:10:26.445Z,15.21
2022-07-29T03:11:40.113Z,15.21
2022-07-29T03:12:27.453Z,15.22
2022-07-29T03:13:26.413Z,15.24
2022-07-29T03:14:26.397Z,15.27
2022-07-29T03:15:26.384Z,15.29
2022-07-29T03:16:26.444Z,15.28
2022-07-29T03:17:26.362Z,15.29
2022-07-29T03:18:26.348Z,15.22
2022-07-29T03:19:26.339Z,15.18
2022-07-29T03:20:26.325Z,15.18
2022-07-29T03:21:26.313Z,15.17
2022-07-29T03:22:26.303Z,15.18
2022-07-29T03:23:26.287Z,15.18
2022-07-29T03:24:26.277Z,15.21
2022-07-29T03:25:26.265Z,15.24
2022-07-29T03:26:26.253Z,15.27
2022-07-29T03:27:26.240Z,15.27
2022-07-29T03:28:26.232Z,15.27
2022-07-29T03:29:33.165Z,15.25
2022-07-29T03:30:27.233Z,15.25
2022-07-29T03:31:26.248Z,15.24
2022-07-29T03:32:26.185Z,15.25
2022-07-29T03:33:26.173Z,15.22
2022-07-29T03:34:26.155Z,15.19
2022-07-29T03:35:26.154Z,15.17
2022-07-29T03:36:26.137Z,15.18
2022-07-29T03:37:26.121Z,15.18
2022-07-29T03:38:26.105Z,15.21
2022-07-29T03:39:26.098Z,15.19
2022-07-29T03:40:26.087Z,15.19
2022-07-29T03:41:26.072Z,15.15
2022-07-29T03:42:28.837Z,15.15
2022-07-29T03:43:26.048Z,15.15
2022-07-29T03:44:26.035Z,15.11
2022-07-29T03:45:26.026Z,15.10
2022-07-29T03:46:26.090Z,15.07
2022-07-29T03:47:45.179Z,15.07
2022-07-29T03:48:27.018Z,15.07
2022-07-29T03:49:26.027Z,15.10
2022-07-29T03:50:25.963Z,15.06
2022-07-29T03:51:33.182Z,15.04
2022-07-29T03:52:26.969Z,15.02
2022-07-29T03:53:25.927Z,15.02
2022-07-29T03:54:25.922Z,15.03
2022-07-29T03:55:25.901Z,15.04
2022-07-29T03:56:25.894Z,15.04
2022-07-29T03:57:25.878Z,15.02
2022-07-29T03:58:25.868Z,14.97
2022-07-29T03:59:25.858Z,14.96
2022-07-29T04:00:25.843Z,14.99
2022-07-29T04:01:25.887Z,14.99
2022-07-29T04:02:30.416Z,14.99
2022-07-29T04:03:25.897Z,14.99
2022-07-29T04:04:25.795Z,14.97
2022-07-29T04:05:25.790Z,14.94
2022-07-29T04:06:25.774Z,14.91
2022-07-29T04:07:25.758Z,14.91
2022-07-29T04:08:25.747Z,14.92
2022-07-29T04:09:25.736Z,14.94
2022-07-29T04:10:30.401Z,14.96
2022-07-29T04:11:26.746Z,14.97
2022-07-29T04:12:25.701Z,15.00
2022-07-29T04:13:25.686Z,14.99
2022-07-29T04:14:25.684Z,14.97
2022-07-29T04:15:25.661Z,15.00
2022-07-29T04:16:25.736Z,14.99
2022-07-29T04:17:25.640Z,15.00
2022-07-29T04:18:25.632Z,15.02
2022-07-29T04:19:25.614Z,15.02
2022-07-29T04:20:25.609Z,15.03
2022-07-29T04:21:25.596Z,15.04
2022-07-29T04:22:25.576Z,15.04
2022-07-29T04:23:25.568Z,15.03
2022-07-29T04:24:25.558Z,15.02
2022-07-29T04:25:25.545Z,14.99
2022-07-29T04:26:25.534Z,15.00
2022-07-29T04:27:25.517Z,14.99
2022-07-29T04:28:25.505Z,15.03
2022-07-29T04:29:25.499Z,15.03
2022-07-29T04:30:25.480Z,15.06
2022-07-29T04:31:26.138Z,15.06
2022-07-29T04:32:25.455Z,15.07
2022-07-29T04:33:25.446Z,15.11
2022-07-29T04:34:28.116Z,15.14
2022-07-29T04:35:25.421Z,15.15
2022-07-29T04:36:29.437Z,15.17
2022-07-29T04:37:25.393Z,15.17
2022-07-29T04:38:25.388Z,15.18
2022-07-29T04:39:25.374Z,15.21
2022-07-29T04:40:25.369Z,15.22
2022-07-29T04:41:32.858Z,15.24
2022-07-29T04:42:27.693Z,15.24
2022-07-29T04:43:25.327Z,15.19
2022-07-29T04:44:26.562Z,15.19
2022-07-29T04:45:25.297Z,15.19
2022-07-29T04:46:25.334Z,15.19
2022-07-29T04:47:25.277Z,15.21
2022-07-29T04:48:28.661Z,15.27
2022-07-29T04:49:25.346Z,15.29
2022-07-29T04:50:25.239Z,15.31
2022-07-29T04:51:25.228Z,15.35
2022-07-29T04:52:25.215Z,15.35
2022-07-29T04:53:25.202Z,15.36
2022-07-29T04:54:25.641Z,15.40
2022-07-29T04:55:25.177Z,15.42
2022-07-29T04:56:25.167Z,15.43
2022-07-29T04:57:25.155Z,15.44
2022-07-29T04:58:25.142Z,15.46
2022-07-29T04:59:25.130Z,15.47
2022-07-29T05:00:28.037Z,15.47
2022-07-29T05:01:26.223Z,15.47
2022-07-29T05:02:25.157Z,15.49
2022-07-29T05:03:25.080Z,15.54
2022-07-29T05:04:25.063Z,15.55
2022-07-29T05:05:25.055Z,15.54
2022-07-29T05:06:25.043Z,15.55
2022-07-29T05:07:25.029Z,15.57
2022-07-29T05:08:25.012Z,15.58
2022-07-29T05:09:25.004Z,15.61
2022-07-29T05:10:25.004Z,15.65
2022-07-29T05:11:28.663Z,15.70
2022-07-29T05:12:24.967Z,15.73
2022-07-29T05:13:24.955Z,15.76
2022-07-29T05:14:24.942Z,15.77
2022-07-29T05:15:24.956Z,15.75
2022-07-29T05:16:24.987Z,15.73
2022-07-29T05:17:24.903Z,15.73
2022-07-29T05:18:26.008Z,15.73
2022-07-29T05:19:24.880Z,15.77
2022-07-29T05:20:24.862Z,15.80
2022-07-29T05:21:24.850Z,15.80
2022-07-29T05:22:24.839Z,15.82
2022-07-29T05:23:24.826Z,15.82
2022-07-29T05:24:24.812Z,15.82
2022-07-29T05:25:24.800Z,15.83
2022-07-29T05:26:25.827Z,15.84
2022-07-29T05:27:24.774Z,15.88
2022-07-29T05:28:24.759Z,15.90
2022-07-29T05:29:42.466Z,15.88
2022-07-29T05:30:25.769Z,15.88
2022-07-29T05:31:24.778Z,15.90
2022-07-29T05:32:24.712Z,15.94
2022-07-29T05:33:34.924Z,15.98
2022-07-29T05:34:25.720Z,16.00
2022-07-29T05:35:24.676Z,16.02
2022-07-29T05:36:24.665Z,16.05
2022-07-29T05:37:24.650Z,16.09
2022-07-29T05:38:24.641Z,16.13
2022-07-29T05:39:47.246Z,16.16
2022-07-29T05:40:25.655Z,16.21
2022-07-29T05:41:24.600Z,16.24
2022-07-29T05:42:24.593Z,16.26
2022-07-29T05:43:24.577Z,16.28
2022-07-29T05:44:25.362Z,16.29
2022-07-29T05:45:24.552Z,16.31
2022-07-29T05:46:24.595Z,16.32
2022-07-29T05:47:24.527Z,16.39
2022-07-29T05:48:24.514Z,16.39
2022-07-29T05:49:26.991Z,16.39
2022-07-29T05:50:24.491Z,16.41
2022-07-29T05:51:24.475Z,16.42
2022-07-29T05:52:24.461Z,16.49
2022-07-29T05:53:24.461Z,16.60
2022-07-29T05:54:24.436Z,16.79
2022-07-29T05:55:24.423Z,17.14
2022-07-29T05:56:24.411Z,17.59
2022-07-29T05:57:24.396Z,17.78
2022-07-29T05:58:24.388Z,17.74
2022-07-29T05:59:29.818Z,17.65
2022-07-29T06:00:25.390Z,17.51
2022-07-29T06:01:24.436Z,17.41
2022-07-29T06:02:24.340Z,17.36
2022-07-29T06:03:24.323Z,17.36
2022-07-29T06:04:24.355Z,17.38
2022-07-29T06:05:24.300Z,17.39
2022-07-29T06:06:24.292Z,17.39
2022-07-29T06:07:24.275Z,17.41
2022-07-29T06:08:24.260Z,17.41
2022-07-29T06:09:24.245Z,17.45
2022-07-29T06:10:26.301Z,17.82
2022-07-29T06:11:24.226Z,18.01
2022-07-29T06:12:24.210Z,18.13
2022-07-29T06:13:24.195Z,18.22
2022-07-29T06:14:24.184Z,18.22
2022-07-29T06:15:24.171Z,18.08
2022-07-29T06:16:29.790Z,17.94
2022-07-29T06:17:25.177Z,17.90
2022-07-29T06:18:24.134Z,17.86
2022-07-29T06:19:24.124Z,17.82
2022-07-29T06:20:27.057Z,17.74
2022-07-29T06:21:24.098Z,17.70
2022-07-29T06:22:24.085Z,17.64
2022-07-29T06:23:24.076Z,17.54
2022-07-29T06:24:24.067Z,17.56
2022-07-29T06:25:24.061Z,17.64
2022-07-29T06:26:30.274Z,17.72
2022-07-29T06:27:25.053Z,17.80
2022-07-29T06:28:24.007Z,17.87
2022-07-29T06:29:23.998Z,17.90
2022-07-29T06:30:24.036Z,17.94
2022-07-29T06:31:24.126Z,17.90
2022-07-29T06:32:23.962Z,17.87
2022-07-29T06:33:23.948Z,17.87
2022-07-29T06:34:23.943Z,17.87
2022-07-29T06:35:39.329Z,17.83
2022-07-29T06:36:25.081Z,17.82
2022-07-29T06:37:23.902Z,17.89
2022-07-29T06:38:33.818Z,18.04
2022-07-29T06:39:24.900Z,18.26
2022-07-29T06:40:23.857Z,18.59
2022-07-29T06:41:23.848Z,18.83
2022-07-29T06:42:23.832Z,19.09
2022-07-29T06:43:23.825Z,19.39
2022-07-29T06:44:23.812Z,19.63
2022-07-29T06:45:23.802Z,19.71
2022-07-29T06:46:24.123Z,19.79
2022-07-29T06:47:23.774Z,19.71
2022-07-29T06:48:23.765Z,19.62
2022-07-29T06:49:23.865Z,19.54
2022-07-29T06:50:23.733Z,19.49
2022-07-29T06:51:24.264Z,19.47
2022-07-29T06:52:23.712Z,19.41
2022-07-29T06:53:23.694Z,19.37
2022-07-29T06:54:23.690Z,19.34
2022-07-29T06:55:25.245Z,19.33
2022-07-29T06:56:23.658Z,19.31
2022-07-29T06:57:23.639Z,19.26
2022-07-29T06:58:23.644Z,19.19
2022-07-29T06:59:32.093Z,19.12
2022-07-29T07:00:24.799Z,19.02
2022-07-29T07:01:23.705Z,18.95
2022-07-29T07:02:23.654Z,18.92
2022-07-29T07:03:23.576Z,18.88
2022-07-29T07:04:23.567Z,18.81
2022-07-29T07:05:23.547Z,18.74
2022-07-29T07:06:23.545Z,18.65
2022-07-29T07:07:23.520Z,18.58
2022-07-29T07:08:23.517Z,18.53
2022-07-29T07:09:23.502Z,18.55
2022-07-29T07:10:23.486Z,18.55
2022-07-29T07:11:23.485Z,18.55
2022-07-29T07:12:23.468Z,18.56
2022-07-29T07:13:23.456Z,18.58
2022-07-29T07:14:23.446Z,18.60
2022-07-29T07:15:38.494Z,18.62
2022-07-29T07:16:24.485Z,18.66
2022-07-29T07:17:23.403Z,18.68
2022-07-29T07:18:23.398Z,18.74
2022-07-29T07:19:23.388Z,18.84
2022-07-29T07:20:23.467Z,19.02
2022-07-29T07:21:23.360Z,19.21
2022-07-29T07:22:23.350Z,19.62
2022-07-29T07:23:23.333Z,20.11
2022-07-29T07:24:23.322Z,20.50
2022-07-29T07:25:23.316Z,20.99
2022-07-29T07:26:23.306Z,21.48
2022-07-29T07:27:23.281Z,21.46
2022-07-29T07:28:24.674Z,21.30
2022-07-29T07:29:23.268Z,21.17
2022-07-29T07:30:23.304Z,20.92
2022-07-29T07:31:23.310Z,20.77
2022-07-29T07:32:23.287Z,20.59
2022-07-29T07:33:23.220Z,20.40
2022-07-29T07:34:29.590Z,20.31
2022-07-29T07:35:24.222Z,20.18
2022-07-29T07:36:23.174Z,20.03
2022-07-29T07:37:23.167Z,19.94
2022-07-29T07:38:23.157Z,19.84
2022-07-29T07:39:23.150Z,19.74
2022-07-29T07:40:23.226Z,19.63
2022-07-29T07:41:23.117Z,19.47
2022-07-29T07:42:23.104Z,19.30
2022-07-29T07:43:23.099Z,19.15
2022-07-29T07:44:23.657Z,19.08
2022-07-29T07:45:23.072Z,19.07
2022-07-29T07:46:23.143Z,19.04
2022-07-29T07:47:23.051Z,19.07
2022-07-29T07:48:23.031Z,19.04
2022-07-29T07:49:23.218Z,19.00
2022-07-29T07:50:23.012Z,18.98
2022-07-29T07:51:23.003Z,18.99
2022-07-29T07:52:22.990Z,18.99
2022-07-29T07:53:22.978Z,19.07
2022-07-29T07:54:22.962Z,19.08
2022-07-29T07:55:22.948Z,19.15
2022-07-29T07:56:22.935Z,19.19
2022-07-29T07:57:22.925Z,19.19
2022-07-29T07:58:22.916Z,19.22
2022-07-29T07:59:22.905Z,19.19
2022-07-29T08:00:23.670Z,19.22
2022-07-29T08:01:22.954Z,19.26
2022-07-29T08:02:22.930Z,19.29
2022-07-29T08:03:22.850Z,19.27
2022-07-29T08:04:27.672Z,19.24
2022-07-29T08:05:22.830Z,19.21
2022-07-29T08:06:22.819Z,19.18
2022-07-29T08:07:22.808Z,19.16
2022-07-29T08:08:22.789Z,19.16
2022-07-29T08:09:29.412Z,19.16
2022-07-29T08:10:23.803Z,19.15
2022-07-29T08:11:22.756Z,19.15
2022-07-29T08:12:22.745Z,19.16
2022-07-29T08:13:22.734Z,19.11
2022-07-29T08:14:22.725Z,19.08
2022-07-29T08:15:22.708Z,19.08
2022-07-29T08:16:22.770Z,19.02
2022-07-29T08:17:22.695Z,19.00
2022-07-29T08:18:22.674Z,18.98
2022-07-29T08:19:22.669Z,18.99
2022-07-29T08:20:22.651Z,18.96
2022-07-29T08:21:22.646Z,18.96
2022-07-29T08:22:22.624Z,18.98
2022-07-29T08:23:22.612Z,18.96
2022-07-29T08:24:22.607Z,18.95
2022-07-29T08:25:22.592Z,18.95
2022-07-29T08:26:22.579Z,18.96
2022-07-29T08:27:42.340Z,18.98
2022-07-29T08:28:25.699Z,18.96
2022-07-29T08:29:22.539Z,18.95
2022-07-29T08:30:22.533Z,18.93
2022-07-29T08:31:22.615Z,18.95
2022-07-29T08:32:50.729Z,18.98
2022-07-29T08:33:23.523Z,18.99
2022-07-29T08:34:27.670Z,19.00
2022-07-29T08:35:22.479Z,19.00
2022-07-29T08:36:22.455Z,19.00
2022-07-29T08:37:22.442Z,18.96
2022-07-29T08:38:22.437Z,18.99
2022-07-29T08:39:22.416Z,19.02
2022-07-29T08:40:30.498Z,19.07
2022-07-29T08:41:23.427Z,19.04
2022-07-29T08:42:22.385Z,19.04
2022-07-29T08:43:22.373Z,19.08
2022-07-29T08:44:27.519Z,19.09
2022-07-29T08:45:23.448Z,19.14
2022-07-29T08:46:22.427Z,19.15
2022-07-29T08:47:22.325Z,19.21
2022-07-29T08:48:22.333Z,19.24
2022-07-29T08:49:22.370Z,19.22
2022-07-29T08:50:22.290Z,19.26
2022-07-29T08:51:22.274Z,19.26
2022-07-29T08:52:22.261Z,19.29
2022-07-29T08:53:22.259Z,19.33
2022-07-29T08:54:22.238Z,19.36
2022-07-29T08:55:22.231Z,19.40
2022-07-29T08:56:22.209Z,19.44
2022-07-29T08:57:22.205Z,19.44
2022-07-29T08:58:23.198Z,19.45
2022-07-29T08:59:22.179Z,19.48
2022-07-29T09:00:22.179Z,19.48
2022-07-29T09:01:22.291Z,19.52
2022-07-29T09:02:22.142Z,19.49
2022-07-29T09:03:22.310Z,19.45
2022-07-29T09:04:22.120Z,19.45
2022-07-29T09:05:22.106Z,19.44
2022-07-29T09:06:22.094Z,19.40
2022-07-29T09:07:22.079Z,19.40
2022-07-29T09:08:22.242Z,19.40
2022-07-29T09:09:22.060Z,19.39
2022-07-29T09:10:22.049Z,19.40
2022-07-29T09:11:22.036Z,19.45
2022-07-29T09:12:29.562Z,19.44
2022-07-29T09:13:23.051Z,19.45
2022-07-29T09:14:21.996Z,19.49
2022-07-29T09:15:21.984Z,19.54
2022-07-29T09:16:43.879Z,19.58
2022-07-29T09:17:23.051Z,19.63
2022-07-29T09:18:30.837Z,19.67
2022-07-29T09:19:22.968Z,19.67
2022-07-29T09:20:21.928Z,19.70
2022-07-29T09:21:21.914Z,19.74
2022-07-29T09:22:21.904Z,19.74
2022-07-29T09:23:23.826Z,19.77
2022-07-29T09:24:21.887Z,19.76
2022-07-29T09:25:21.868Z,19.76
2022-07-29T09:26:21.856Z,19.77
2022-07-29T09:27:21.861Z,19.82
2022-07-29T09:28:22.072Z,19.84
2022-07-29T09:29:21.827Z,19.85
2022-07-29T09:30:31.381Z,19.85
2022-07-29T09:31:22.867Z,19.84
2022-07-29T09:32:21.788Z,19.86
2022-07-29T09:33:22.069Z,19.86
2022-07-29T09:34:21.760Z,19.89
2022-07-29T09:35:21.750Z,19.94
2022-07-29T09:36:21.735Z,20.00
2022-07-29T09:37:21.725Z,20.00
2022-07-29T09:38:21.728Z,19.96
2022-07-29T09:39:22.061Z,19.99
2022-07-29T09:40:21.689Z,20.02
2022-07-29T09:41:21.678Z,20.04
2022-07-29T09:42:21.665Z,20.00
2022-07-29T09:43:21.654Z,19.99
2022-07-29T09:44:21.642Z,19.96
2022-07-29T09:45:21.628Z,20.00
2022-07-29T09:46:21.669Z,19.99
2022-07-29T09:47:21.602Z,20.00
2022-07-29T09:48:21.587Z,20.02
2022-07-29T09:49:21.642Z,20.02
2022-07-29T09:50:21.567Z,20.00
2022-07-29T09:51:26.934Z,19.99
2022-07-29T09:52:22.593Z,19.94
2022-07-29T09:53:21.530Z,19.88
2022-07-29T09:54:21.518Z,19.85
2022-07-29T09:55:21.510Z,19.86
2022-07-29T09:56:21.493Z,19.86
2022-07-29T09:57:21.536Z,19.86
2022-07-29T09:58:21.471Z,19.88
2022-07-29T09:59:21.461Z,19.89
2022-07-29T10:00:21.445Z,19.91
2022-07-29T10:01:21.486Z,19.89
2022-07-29T10:02:23.954Z,19.91
2022-07-29T10:03:21.494Z,19.92
2022-07-29T10:04:21.408Z,19.96
2022-07-29T10:05:21.387Z,19.99
2022-07-29T10:06:21.377Z,20.03
2022-07-29T10:07:21.363Z,20.07
2022-07-29T10:08:21.352Z,20.11
2022-07-29T10:09:22.312Z,20.21
2022-07-29T10:10:21.331Z,20.29
2022-07-29T10:11:21.314Z,20.37
2022-07-29T10:12:21.302Z,20.40
2022-07-29T10:13:21.293Z,20.44
2022-07-29T10:14:21.277Z,20.48
2022-07-29T10:15:21.267Z,20.55
2022-07-29T10:16:21.331Z,20.65
2022-07-29T10:17:21.244Z,20.72
2022-07-29T10:18:21.239Z,20.69
2022-07-29T10:19:21.217Z,20.75
2022-07-29T10:20:21.209Z,20.85
2022-07-29T10:21:22.645Z,20.92
2022-07-29T10:22:50.431Z,21.00
2022-07-29T10:23:22.200Z,21.07
2022-07-29T10:24:21.159Z,21.25
2022-07-29T10:25:21.149Z,21.30
2022-07-29T10:26:21.139Z,21.42
2022-07-29T10:27:21.137Z,21.52
2022-07-29T10:28:21.111Z,21.57
2022-07-29T10:29:21.502Z,21.66
2022-07-29T10:30:21.093Z,21.73
2022-07-29T10:31:21.160Z,21.79
2022-07-29T10:32:21.063Z,21.82
2022-07-29T10:33:21.060Z,21.88
2022-07-29T10:34:21.041Z,21.89
2022-07-29T10:35:21.029Z,21.92
2022-07-29T10:36:21.058Z,21.95
2022-07-29T10:37:21.008Z,21.98
2022-07-29T10:38:20.993Z,22.02
2022-07-29T10:39:22.205Z,22.06
2022-07-29T10:40:20.966Z,21.98
2022-07-29T10:41:20.954Z,21.91
2022-07-29T10:42:29.511Z,21.88
2022-07-29T10:43:22.261Z,21.95
2022-07-29T10:44:22.893Z,22.02
2022-07-29T10:45:20.907Z,22.13
2022-07-29T10:46:20.944Z,22.23
2022-07-29T10:47:20.888Z,22.33
2022-07-29T10:48:20.885Z,22.36
2022-07-29T10:49:24.380Z,22.43
2022-07-29T10:50:20.849Z,22.54
2022-07-29T10:51:20.857Z,22.62
2022-07-29T10:52:20.830Z,22.60
2022-07-29T10:53:20.815Z,22.55
2022-07-29T10:54:20.803Z,22.53
2022-07-29T10:55:20.794Z,22.53
2022-07-29T10:56:20.777Z,22.48
2022-07-29T10:57:20.876Z,22.36
2022-07-29T10:58:20.752Z,22.32
2022-07-29T10:59:21.495Z,22.28
2022-07-29T11:00:20.730Z,22.23
2022-07-29T11:01:37.558Z,22.18
2022-07-29T11:02:41.065Z,22.20
2022-07-29T11:03:21.793Z,22.17
2022-07-29T11:04:20.679Z,22.08
2022-07-29T11:05:20.666Z,22.10
2022-07-29T11:06:26.592Z,22.13
2022-07-29T11:07:21.686Z,22.17
2022-07-29T11:08:26.012Z,22.25
2022-07-29T11:09:35.257Z,22.33
2022-07-29T11:10:21.654Z,22.45
2022-07-29T11:11:22.225Z,22.53
2022-07-29T11:12:20.584Z,22.60
2022-07-29T11:13:20.571Z,22.62
2022-07-29T11:14:26.520Z,22.65
2022-07-29T11:15:21.586Z,22.68
2022-07-29T11:16:20.536Z,22.66
2022-07-29T11:17:20.527Z,22.72
2022-07-29T11:18:20.515Z,22.78
2022-07-29T11:19:21.538Z,22.85
2022-07-29T11:20:21.519Z,22.94
2022-07-29T11:21:23.397Z,23.05
2022-07-29T11:22:20.464Z,23.12
2022-07-29T11:23:20.451Z,23.20
2022-07-29T11:24:29.169Z,23.24
2022-07-29T11:25:51.013Z,23.36
2022-07-29T11:26:23.123Z,23.43
2022-07-29T11:27:20.401Z,23.44
2022-07-29T11:28:23.103Z,23.47
2022-07-29T11:29:20.374Z,23.46
2022-07-29T11:30:20.370Z,23.43
2022-07-29T11:31:20.356Z,23.40
2022-07-29T11:32:22.682Z,23.47
2022-07-29T11:33:20.328Z,23.56
2022-07-29T11:34:21.351Z,23.65
2022-07-29T11:35:36.876Z,23.74
2022-07-29T11:36:28.119Z,23.84
2022-07-29T11:37:28.028Z,23.86
2022-07-29T11:38:21.295Z,23.83
2022-07-29T11:39:20.247Z,23.80
2022-07-29T11:40:20.301Z,23.74
2022-07-29T11:41:20.980Z,23.66
2022-07-29T11:42:28.144Z,23.54
2022-07-29T11:43:21.229Z,23.48
2022-07-29T11:44:20.187Z,23.58
2022-07-29T11:45:44.978Z,23.62
2022-07-29T11:46:25.132Z,23.71
2022-07-29T11:47:20.172Z,23.81
2022-07-29T11:48:28.693Z,23.91
2022-07-29T11:49:22.034Z,23.98
2022-07-29T11:50:21.138Z,24.08
2022-07-29T11:51:20.098Z,24.17
2022-07-29T11:52:21.123Z,24.18
2022-07-29T11:53:20.072Z,24.17
2022-07-29T11:54:20.057Z,24.13
2022-07-29T11:55:21.073Z,24.06
2022-07-29T11:56:20.023Z,24.05
2022-07-29T11:57:20.015Z,24.03
2022-07-29T11:58:19.999Z,24.11
2022-07-29T11:59:19.997Z,24.16
2022-07-29T12:00:19.975Z,24.17
2022-07-29T12:01:19.963Z,24.13
2022-07-29T12:02:37.201Z,24.08
2022-07-29T12:03:20.963Z,24.03
2022-07-29T12:04:21.010Z,24.01
2022-07-29T12:05:35.790Z,23.87
2022-07-29T12:06:21.164Z,23.77
2022-07-29T12:07:20.173Z,23.68
2022-07-29T12:08:19.877Z,23.58
2022-07-29T12:09:19.856Z,23.47
2022-07-29T12:10:30.676Z,23.43
2022-07-29T12:11:21.731Z,23.39
2022-07-29T12:12:19.827Z,23.34
2022-07-29T12:13:19.804Z,23.37
2022-07-29T12:14:19.795Z,23.34
2022-07-29T12:15:20.368Z,23.28
2022-07-29T12:16:25.743Z,23.27
2022-07-29T12:17:20.777Z,23.25
2022-07-29T12:18:19.742Z,23.31
2022-07-29T12:19:19.728Z,23.34
2022-07-29T12:20:20.446Z,23.34
2022-07-29T12:21:19.709Z,23.34
2022-07-29T12:22:20.730Z,23.34
2022-07-29T12:23:19.676Z,23.36
2022-07-29T12:24:19.652Z,23.36
2022-07-29T12:25:34.995Z,23.31
2022-07-29T12:26:25.480Z,23.27
2022-07-29T12:27:19.626Z,23.25
2022-07-29T12:28:27.561Z,23.24
2022-07-29T12:29:34.700Z,23.24
2022-07-29T12:30:20.617Z,23.27
2022-07-29T12:31:43.096Z,23.27
2022-07-29T12:32:20.658Z,23.24
2022-07-29T12:33:19.547Z,23.15
2022-07-29T12:34:19.533Z,23.06
2022-07-29T12:35:19.526Z,22.96
2022-07-29T12:36:19.513Z,22.93
2022-07-29T12:37:19.506Z,22.90
2022-07-29T12:38:19.485Z,22.85
2022-07-29T12:39:19.472Z,22.78
2022-07-29T12:40:19.462Z,22.72
2022-07-29T12:41:19.445Z,22.65
2022-07-29T12:42:19.435Z,22.59
2022-07-29T12:43:19.418Z,22.59
2022-07-29T12:44:19.418Z,22.53
2022-07-29T12:45:19.403Z,22.47
2022-07-29T12:46:19.521Z,22.48
2022-07-29T12:47:19.422Z,22.47
2022-07-29T12:48:19.357Z,22.47
2022-07-29T12:49:19.418Z,22.38
2022-07-29T12:50:23.290Z,22.30
2022-07-29T12:51:20.360Z,22.22
2022-07-29T12:52:19.305Z,22.13